createdAt,value
2023-03-30T00:01:12.023Z,33.93
2023-03-30T00:03:43.695Z,33.97
2023-03-30T00:06:11.552Z,34.02
2023-03-30T00:08:39.019Z,34.02
2023-03-30T00:11:08.749Z,34.06
2023-03-30T00:13:36.560Z,34.08
2023-03-30T00:16:04.886Z,34.07
2023-03-30T00:18:34.338Z,34.06
2023-03-30T00:21:05.345Z,34.07
2023-03-30T00:23:33.427Z,34.08
2023-03-30T00:26:00.937Z,34.09
2023-03-30T00:28:30.901Z,34.11
2023-03-30T00:30:58.917Z,34.14
2023-03-30T00:33:41.222Z,34.19
2023-03-30T00:36:09.987Z,34.22
2023-03-30T00:38:37.715Z,34.22
2023-03-30T00:41:05.609Z,34.25
2023-03-30T00:43:33.706Z,34.26
2023-03-30T00:46:01.594Z,34.30
2023-03-30T00:48:34.609Z,34.29
2023-03-30T00:51:09.478Z,34.27
2023-03-30T00:53:58.309Z,34.31
2023-03-30T00:56:27.296Z,34.30
2023-03-30T00:58:55.540Z,34.31
2023-03-30T01:01:28.704Z,34.33
2023-03-30T01:03:59.444Z,34.31
2023-03-30T01:06:29.872Z,34.31
2023-03-30T01:09:00.847Z,34.31
2023-03-30T01:11:28.542Z,34.32
2023-03-30T01:14:01.308Z,34.33
2023-03-30T01:16:36.100Z,34.32
2023-03-30T01:19:25.816Z,34.32
2023-03-30T01:22:12.860Z,34.29
2023-03-30T01:25:03.330Z,34.31
2023-03-30T01:28:08.260Z,34.36
2023-03-30T01:31:12.690Z,34.40
2023-03-30T01:34:18.115Z,34.43
2023-03-30T01:36:54.390Z,34.47
2023-03-30T01:39:33.243Z,34.54
2023-03-30T01:42:09.323Z,34.54
2023-03-30T01:44:51.711Z,34.53
2023-03-30T01:47:25.284Z,34.58
2023-03-30T01:50:06.612Z,34.59
2023-03-30T01:52:42.572Z,34.56
2023-03-30T01:55:12.066Z,34.56
2023-03-30T01:58:03.739Z,34.56
2023-03-30T02:00:31.558Z,34.56
2023-03-30T02:03:24.863Z,34.58
2023-03-30T02:05:53.798Z,34.55
2023-03-30T02:08:24.015Z,34.59
2023-03-30T02:10:51.847Z,34.57
2023-03-30T02:13:19.294Z,34.60
2023-03-30T02:15:50.466Z,34.61
2023-03-30T02:18:19.958Z,34.63
2023-03-30T02:20:49.495Z,34.45
2023-03-30T02:23:20.736Z,34.58
2023-03-30T02:25:48.514Z,34.63
2023-03-30T02:28:18.491Z,34.68
2023-03-30T02:30:45.983Z,34.69
2023-03-30T02:33:35.676Z,34.71
2023-03-30T02:36:21.874Z,34.71
2023-03-30T02:38:58.406Z,34.74
2023-03-30T02:42:00.619Z,34.79
2023-03-30T02:44:34.573Z,34.79
2023-03-30T02:47:07.057Z,34.81
2023-03-30T02:49:53.789Z,34.83
2023-03-30T02:52:43.174Z,34.81
2023-03-30T02:55:23.422Z,34.85
2023-03-30T02:58:03.246Z,34.83
2023-03-30T03:00:41.629Z,34.90
2023-03-30T03:03:34.541Z,34.90
2023-03-30T03:06:02.634Z,34.85
2023-03-30T03:08:34.145Z,34.88
2023-03-30T03:11:02.285Z,34.90
2023-03-30T03:13:30.333Z,34.89
2023-03-30T03:15:58.278Z,34.91
2023-03-30T03:18:27.044Z,34.93
2023-03-30T03:20:54.685Z,34.92
2023-03-30T03:23:23.193Z,34.92
2023-03-30T03:25:51.503Z,34.96
2023-03-30T03:28:19.312Z,34.97
2023-03-30T03:30:49.056Z,34.99
2023-03-30T03:33:17.035Z,35.00
2023-03-30T03:35:45.849Z,35.00
2023-03-30T03:38:14.066Z,35.02
2023-03-30T03:40:42.106Z,35.05
2023-03-30T03:43:09.707Z,35.07
2023-03-30T03:45:37.198Z,35.10
2023-03-30T03:48:05.089Z,35.10
2023-03-30T03:50:33.082Z,35.11
2023-03-30T03:53:00.592Z,35.13
2023-03-30T03:55:29.235Z,35.14
2023-03-30T03:57:57.526Z,35.14
2023-03-30T04:00:26.754Z,35.14
2023-03-30T04:02:54.727Z,35.14
2023-03-30T04:05:22.211Z,34.83
2023-03-30T04:07:50.112Z,34.28
2023-03-30T04:10:18.106Z,34.04
2023-03-30T04:12:46.068Z,34.03
2023-03-30T04:15:13.925Z,34.00
2023-03-30T04:17:42.148Z,33.99
2023-03-30T04:20:12.645Z,33.97
2023-03-30T04:22:42.057Z,33.96
2023-03-30T04:25:15.801Z,33.92
2023-03-30T04:27:44.217Z,33.90
2023-03-30T04:30:13.265Z,33.86
2023-03-30T04:32:42.328Z,33.85
2023-03-30T04:35:11.218Z,33.72
2023-03-30T04:37:42.197Z,33.74
2023-03-30T04:40:11.094Z,33.79
2023-03-30T04:42:39.741Z,33.78
2023-03-30T04:45:08.157Z,33.77
2023-03-30T04:47:36.423Z,33.77
2023-03-30T04:50:05.182Z,33.76
2023-03-30T04:52:34.567Z,33.73
2023-03-30T04:55:05.139Z,33.70
2023-03-30T04:57:33.530Z,33.68
2023-03-30T05:00:01.410Z,33.68
2023-03-30T05:02:30.212Z,33.66
2023-03-30T05:04:59.200Z,33.65
2023-03-30T05:07:27.268Z,33.62
2023-03-30T05:09:56.081Z,33.64
2023-03-30T05:12:23.760Z,33.62
2023-03-30T05:14:51.300Z,33.61
2023-03-30T05:17:19.601Z,33.58
2023-03-30T05:19:50.105Z,33.56
2023-03-30T05:22:18.444Z,33.56
2023-03-30T05:24:46.248Z,33.57
2023-03-30T05:27:14.120Z,33.55
2023-03-30T05:29:42.190Z,33.53
2023-03-30T05:32:11.989Z,33.54
2023-03-30T05:34:39.618Z,33.49
2023-03-30T05:37:08.304Z,33.51
2023-03-30T05:39:37.871Z,33.50
2023-03-30T05:42:05.881Z,33.48
2023-03-30T05:44:33.896Z,33.47
2023-03-30T05:47:03.216Z,33.47
2023-03-30T05:49:31.669Z,33.47
2023-03-30T05:52:01.892Z,33.46
2023-03-30T05:54:29.729Z,33.44
2023-03-30T05:56:57.726Z,33.43
2023-03-30T05:59:25.647Z,33.42
2023-03-30T06:01:53.174Z,33.41
2023-03-30T06:04:21.726Z,33.41
2023-03-30T06:06:49.859Z,33.40
2023-03-30T06:09:17.362Z,33.39
2023-03-30T06:11:46.048Z,33.40
2023-03-30T06:14:14.558Z,33.41
2023-03-30T06:16:44.632Z,33.39
2023-03-30T06:19:15.191Z,33.39
2023-03-30T06:21:42.888Z,33.38
2023-03-30T06:24:12.943Z,33.38
2023-03-30T06:26:41.904Z,33.39
2023-03-30T06:29:09.711Z,33.40
2023-03-30T06:31:37.497Z,33.40
2023-03-30T06:34:08.069Z,33.41
2023-03-30T06:36:44.843Z,33.42
2023-03-30T06:39:14.534Z,33.41
2023-03-30T06:41:42.519Z,33.39
2023-03-30T06:44:15.512Z,33.41
2023-03-30T06:46:47.093Z,33.40
2023-03-30T06:49:15.088Z,33.41
2023-03-30T06:51:47.239Z,33.40
2023-03-30T06:54:15.047Z,33.39
2023-03-30T06:56:43.315Z,33.36
2023-03-30T06:59:10.920Z,33.35
2023-03-30T07:01:40.080Z,33.34
2023-03-30T07:04:09.670Z,33.30
2023-03-30T07:06:37.878Z,33.27
2023-03-30T07:09:05.778Z,33.28
2023-03-30T07:11:33.572Z,33.28
2023-03-30T07:14:02.468Z,33.24
2023-03-30T07:16:30.752Z,33.25
2023-03-30T07:18:58.289Z,33.24
2023-03-30T07:21:26.125Z,33.21
2023-03-30T07:23:53.851Z,33.19
2023-03-30T07:26:24.114Z,33.17
2023-03-30T07:28:52.278Z,33.16
2023-03-30T07:31:21.942Z,33.13
2023-03-30T07:33:50.159Z,33.12
2023-03-30T07:36:18.861Z,33.11
2023-03-30T07:38:47.398Z,33.10
2023-03-30T07:41:15.674Z,33.09
2023-03-30T07:43:43.798Z,33.11
2023-03-30T07:46:14.563Z,33.10
2023-03-30T07:48:43.098Z,33.14
2023-03-30T07:51:12.397Z,33.15
2023-03-30T07:53:42.302Z,33.18
2023-03-30T07:56:10.551Z,33.16
2023-03-30T07:58:39.967Z,33.16
2023-03-30T08:01:08.305Z,33.15
2023-03-30T08:03:37.553Z,33.21
2023-03-30T08:06:05.746Z,33.05
2023-03-30T08:08:33.972Z,33.15
2023-03-30T08:11:02.623Z,33.20
2023-03-30T08:13:49.220Z,33.22
2023-03-30T08:16:17.072Z,33.22
2023-03-30T08:18:47.331Z,33.28
2023-03-30T08:21:14.590Z,33.26
2023-03-30T08:23:42.419Z,33.11
2023-03-30T08:26:09.945Z,33.22
2023-03-30T08:28:38.197Z,33.32
2023-03-30T08:31:06.660Z,33.34
2023-03-30T08:33:35.026Z,33.36
2023-03-30T08:36:03.569Z,33.36
2023-03-30T08:38:31.671Z,33.37
2023-03-30T08:40:59.211Z,33.36
2023-03-30T08:43:48.522Z,33.36
2023-03-30T08:46:17.703Z,33.38
2023-03-30T08:48:45.390Z,33.35
2023-03-30T08:51:24.608Z,33.38
2023-03-30T08:53:55.926Z,33.36
2023-03-30T08:56:30.777Z,33.37
2023-03-30T08:58:58.522Z,33.35
2023-03-30T09:01:31.903Z,33.37
2023-03-30T09:04:23.826Z,33.37
2023-03-30T09:06:52.287Z,33.36
2023-03-30T09:09:21.902Z,33.38
2023-03-30T09:11:53.400Z,33.38
2023-03-30T09:14:54.302Z,33.35
2023-03-30T09:17:25.600Z,33.31
2023-03-30T09:19:58.589Z,33.31
2023-03-30T09:22:32.474Z,33.31
2023-03-30T09:25:00.232Z,33.32
2023-03-30T09:27:45.758Z,33.32
2023-03-30T09:30:19.093Z,33.30
2023-03-30T09:32:53.092Z,33.32
2023-03-30T09:35:25.128Z,33.35
2023-03-30T09:37:52.818Z,33.40
2023-03-30T09:40:30.497Z,33.45
2023-03-30T09:43:09.962Z,33.52
2023-03-30T09:45:38.094Z,33.54
2023-03-30T09:48:06.961Z,33.42
2023-03-30T09:50:45.867Z,33.58
2023-03-30T09:53:29.509Z,33.62
2023-03-30T09:56:16.491Z,33.64
2023-03-30T09:58:44.283Z,33.65
2023-03-30T10:01:18.455Z,33.66
2023-03-30T10:04:05.305Z,33.68
2023-03-30T10:06:55.129Z,33.78
2023-03-30T10:09:23.748Z,33.86
2023-03-30T10:11:52.112Z,33.88
2023-03-30T10:14:28.216Z,33.89
2023-03-30T10:16:56.715Z,33.89
2023-03-30T10:19:25.140Z,33.93
2023-03-30T10:21:55.159Z,33.98
2023-03-30T10:24:23.658Z,34.00
2023-03-30T10:27:18.221Z,33.81
2023-03-30T10:29:46.903Z,33.91
2023-03-30T10:32:21.590Z,33.94
2023-03-30T10:34:56.811Z,33.97
2023-03-30T10:37:41.305Z,33.94
2023-03-30T10:40:19.095Z,33.92
2023-03-30T10:42:48.429Z,33.89
2023-03-30T10:45:18.849Z,33.88
2023-03-30T10:47:55.333Z,33.88
2023-03-30T10:50:41.825Z,33.69
2023-03-30T10:53:30.730Z,32.88
2023-03-30T10:56:08.046Z,32.21
2023-03-30T10:58:59.858Z,31.84
2023-03-30T11:01:43.250Z,31.48
2023-03-30T11:04:23.331Z,31.27
2023-03-30T11:06:54.573Z,31.65
2023-03-30T11:09:25.016Z,31.99
2023-03-30T11:11:54.561Z,31.96
2023-03-30T11:14:44.144Z,32.08
2023-03-30T11:17:16.479Z,32.15
2023-03-30T11:19:47.517Z,32.22
2023-03-30T11:22:17.230Z,32.26
2023-03-30T11:24:44.961Z,32.23
2023-03-30T11:27:22.294Z,32.24
2023-03-30T11:29:53.873Z,32.21
2023-03-30T11:33:06.532Z,32.19
2023-03-30T11:35:48.109Z,32.08
2023-03-30T11:38:39.600Z,32.03
2023-03-30T11:41:13.621Z,31.98
2023-03-30T11:43:41.467Z,31.92
2023-03-30T11:46:23.533Z,31.86
2023-03-30T11:49:05.768Z,31.80
2023-03-30T11:52:01.565Z,31.78
2023-03-30T11:54:59.850Z,31.71
2023-03-30T11:57:40.677Z,31.65
2023-03-30T12:00:41.139Z,31.58
2023-03-30T12:03:42.824Z,31.54
2023-03-30T12:06:13.444Z,31.49
2023-03-30T12:09:01.297Z,31.50
2023-03-30T12:11:50.070Z,31.46
2023-03-30T12:14:43.040Z,31.43
2023-03-30T12:17:44.572Z,31.44
2023-03-30T12:20:18.089Z,31.42
2023-03-30T12:23:10.237Z,31.46
2023-03-30T12:25:56.669Z,31.44
2023-03-30T12:28:29.821Z,31.45
2023-03-30T12:31:04.194Z,31.50
2023-03-30T12:33:44.284Z,31.49
2023-03-30T12:36:38.354Z,31.52
2023-03-30T12:39:22.002Z,31.53
2023-03-30T12:41:50.325Z,31.56
2023-03-30T12:44:29.310Z,31.58
2023-03-30T12:47:15.781Z,31.63
2023-03-30T12:50:08.857Z,31.63
2023-03-30T12:52:39.144Z,31.65
2023-03-30T12:55:50.033Z,31.71
2023-03-30T12:59:00.053Z,31.73
2023-03-30T13:01:27.911Z,31.77
2023-03-30T13:03:59.627Z,31.83
2023-03-30T13:06:30.039Z,31.90
2023-03-30T13:09:22.247Z,31.91
2023-03-30T13:11:50.128Z,31.93
2023-03-30T13:14:29.971Z,31.97
2023-03-30T13:17:00.834Z,32.03
2023-03-30T13:20:26.112Z,32.05
2023-03-30T13:23:12.446Z,32.09
2023-03-30T13:25:49.890Z,32.14
2023-03-30T13:28:48.284Z,32.20
2023-03-30T13:31:26.313Z,32.23
2023-03-30T13:34:20.046Z,32.29
2023-03-30T13:37:09.285Z,32.31
2023-03-30T13:39:45.916Z,32.36
2023-03-30T13:42:23.906Z,32.41
2023-03-30T13:44:57.508Z,32.41
2023-03-30T13:47:41.198Z,32.43
2023-03-30T13:50:31.171Z,32.44
2023-03-30T13:52:59.635Z,32.47
2023-03-30T13:55:40.652Z,32.50
2023-03-30T13:58:33.632Z,32.54
2023-03-30T14:01:01.931Z,32.63
2023-03-30T14:03:32.628Z,32.68
2023-03-30T14:06:03.006Z,32.68
2023-03-30T14:08:34.450Z,32.64
2023-03-30T14:11:27.083Z,32.61
2023-03-30T14:13:55.014Z,32.60
2023-03-30T14:16:42.813Z,32.58
2023-03-30T14:19:30.873Z,32.55
2023-03-30T14:22:00.919Z,32.54
2023-03-30T14:24:33.204Z,32.46
2023-03-30T14:27:12.241Z,32.41
2023-03-30T14:29:47.394Z,32.30
2023-03-30T14:32:15.985Z,32.19
2023-03-30T14:34:48.442Z,32.13
2023-03-30T14:37:16.116Z,32.06
2023-03-30T14:39:46.143Z,31.97
2023-03-30T14:42:17.576Z,31.90
2023-03-30T14:44:46.774Z,31.81
2023-03-30T14:47:15.384Z,31.76
2023-03-30T14:49:43.615Z,31.64
2023-03-30T14:52:17.349Z,31.58
2023-03-30T14:54:57.646Z,31.52
2023-03-30T14:57:34.759Z,31.43
2023-03-30T15:00:08.182Z,31.34
2023-03-30T15:02:37.585Z,31.29
2023-03-30T15:05:05.366Z,31.26
2023-03-30T15:07:32.894Z,31.23
2023-03-30T15:10:00.669Z,31.21
2023-03-30T15:12:36.088Z,31.17
2023-03-30T15:15:06.184Z,31.12
2023-03-30T15:17:33.703Z,31.13
2023-03-30T15:20:01.424Z,31.12
2023-03-30T15:22:55.824Z,31.11
2023-03-30T15:25:33.191Z,31.12
2023-03-30T15:28:04.165Z,31.13
2023-03-30T15:30:37.885Z,31.17
2023-03-30T15:33:07.467Z,31.19
2023-03-30T15:35:36.448Z,31.19
2023-03-30T15:38:10.590Z,31.21
2023-03-30T15:40:42.738Z,31.24
2023-03-30T15:43:30.212Z,31.27
2023-03-30T15:46:12.815Z,31.29
2023-03-30T15:48:43.233Z,31.34
2023-03-30T15:51:13.787Z,31.38
2023-03-30T15:53:55.747Z,31.40
2023-03-30T15:56:27.353Z,31.30
2023-03-30T15:58:54.885Z,31.44
2023-03-30T16:01:23.412Z,31.53
2023-03-30T16:03:54.756Z,31.57
2023-03-30T16:06:22.902Z,31.61
2023-03-30T16:08:50.696Z,31.64
2023-03-30T16:11:18.751Z,31.67
2023-03-30T16:13:47.328Z,31.74
2023-03-30T16:16:15.744Z,31.80
2023-03-30T16:18:43.199Z,31.82
2023-03-30T16:21:11.085Z,31.86
2023-03-30T16:23:39.037Z,31.90
2023-03-30T16:26:09.553Z,31.94
2023-03-30T16:28:37.094Z,31.96
2023-03-30T16:31:16.220Z,32.02
2023-03-30T16:33:44.401Z,32.04
2023-03-30T16:36:18.050Z,32.09
2023-03-30T16:38:45.778Z,32.13
2023-03-30T16:41:21.368Z,32.21
2023-03-30T16:43:49.772Z,32.30
2023-03-30T16:46:20.998Z,32.36
2023-03-30T16:48:48.491Z,32.40
2023-03-30T16:51:16.803Z,32.42
2023-03-30T16:53:46.505Z,32.42
2023-03-30T16:56:16.890Z,32.50
2023-03-30T16:58:47.601Z,32.57
2023-03-30T17:01:18.623Z,32.56
2023-03-30T17:03:47.547Z,32.54
2023-03-30T17:06:17.101Z,32.50
2023-03-30T17:08:45.636Z,32.42
2023-03-30T17:11:14.209Z,32.35
2023-03-30T17:14:02.158Z,32.31
2023-03-30T17:17:12.015Z,32.22
2023-03-30T17:20:02.996Z,32.12
2023-03-30T17:23:11.319Z,32.06
2023-03-30T17:26:00.242Z,31.97
2023-03-30T17:28:32.254Z,31.94
2023-03-30T17:31:01.726Z,31.93
2023-03-30T17:34:10.481Z,31.91
2023-03-30T17:36:58.542Z,31.76
2023-03-30T17:40:25.409Z,31.92
2023-03-30T17:42:57.065Z,31.96
2023-03-30T17:45:48.429Z,32.03
2023-03-30T17:48:20.797Z,32.03
2023-03-30T17:50:51.708Z,32.05
2023-03-30T17:53:21.391Z,32.09
2023-03-30T17:56:14.409Z,32.12
2023-03-30T17:59:04.434Z,32.13
2023-03-30T18:01:59.397Z,32.16
2023-03-30T18:04:35.794Z,32.18
2023-03-30T18:07:05.940Z,32.24
2023-03-30T18:09:49.695Z,32.25
2023-03-30T18:12:20.421Z,32.26
2023-03-30T18:14:51.149Z,32.29
2023-03-30T18:17:19.678Z,32.34
2023-03-30T18:19:49.123Z,32.37
2023-03-30T18:22:18.227Z,32.38
2023-03-30T18:24:46.829Z,32.40
2023-03-30T18:27:15.872Z,32.42
2023-03-30T18:32:44.299Z,32.51
2023-03-30T18:35:16.636Z,32.55
2023-03-30T18:38:06.206Z,32.57
2023-03-30T18:41:05.505Z,32.55
2023-03-30T18:43:55.924Z,32.57
2023-03-30T18:47:06.611Z,32.64
2023-03-30T18:49:55.459Z,32.67
2023-03-30T18:52:29.837Z,32.70
2023-03-30T18:55:20.336Z,32.79
2023-03-30T18:58:17.195Z,32.91
2023-03-30T19:01:00.823Z,33.01
2023-03-30T19:04:15.069Z,33.07
2023-03-30T19:06:45.129Z,33.15
2023-03-30T19:09:43.113Z,33.28
2023-03-30T19:12:13.659Z,33.42
2023-03-30T19:14:44.207Z,33.50
2023-03-30T19:17:13.702Z,33.54
2023-03-30T19:20:02.724Z,33.61
2023-03-30T19:22:53.788Z,33.67
2023-03-30T19:26:02.859Z,33.72
2023-03-30T19:28:52.126Z,33.75
2023-03-30T19:31:22.429Z,33.75
2023-03-30T19:33:51.972Z,33.81
2023-03-30T19:37:00.844Z,33.78
2023-03-30T19:39:29.131Z,33.78
2023-03-30T19:41:58.466Z,33.86
2023-03-30T19:44:27.388Z,33.86
2023-03-30T19:46:57.451Z,33.89
2023-03-30T19:49:26.641Z,33.98
2023-03-30T19:51:55.724Z,34.00
2023-03-30T19:54:24.262Z,33.92
2023-03-30T19:56:53.676Z,33.90
2023-03-30T19:59:22.372Z,33.83
2023-03-30T20:01:52.648Z,33.84
2023-03-30T20:04:22.085Z,33.88
2023-03-30T20:06:50.726Z,33.90
2023-03-30T20:09:19.969Z,33.91
2023-03-30T20:11:48.712Z,33.92
2023-03-30T20:14:16.579Z,33.96
2023-03-30T20:16:44.595Z,33.96
2023-03-30T20:19:28.595Z,34.02
2023-03-30T20:21:58.073Z,34.10
2023-03-30T20:24:26.943Z,34.14
2023-03-30T20:26:54.904Z,34.13
2023-03-30T20:29:22.806Z,34.23
2023-03-30T20:31:51.233Z,34.33
2023-03-30T20:34:19.849Z,34.33
2023-03-30T20:36:50.193Z,34.32
2023-03-30T20:39:18.370Z,34.25
2023-03-30T20:41:46.013Z,34.31
2023-03-30T20:44:13.815Z,34.30
2023-03-30T20:46:43.433Z,34.28
2023-03-30T20:49:11.790Z,34.29
2023-03-30T20:51:40.231Z,34.27
2023-03-30T20:54:08.020Z,34.28
2023-03-30T20:56:35.937Z,34.35
2023-03-30T20:59:03.951Z,34.46
2023-03-30T21:01:31.780Z,34.50
2023-03-30T21:03:59.899Z,34.50
2023-03-30T21:06:28.799Z,34.52
2023-03-30T21:09:01.365Z,34.69
2023-03-30T21:11:29.329Z,34.69
2023-03-30T21:13:57.118Z,34.75
2023-03-30T21:16:25.012Z,34.72
2023-03-30T21:18:52.511Z,34.63
2023-03-30T21:21:20.511Z,34.63
2023-03-30T21:23:47.974Z,34.59
2023-03-30T21:26:15.895Z,34.60
2023-03-30T21:28:43.620Z,34.63
2023-03-30T21:31:12.399Z,34.69
2023-03-30T21:33:40.002Z,34.78
2023-03-30T21:36:08.493Z,34.88
2023-03-30T21:38:36.360Z,34.88
2023-03-30T21:41:07.718Z,34.95
2023-03-30T21:43:36.685Z,34.96
2023-03-30T21:46:05.953Z,34.92
2023-03-30T21:48:35.280Z,34.89
2023-03-30T21:51:05.022Z,34.97
2023-03-30T21:53:32.614Z,34.92
2023-03-30T21:56:00.208Z,34.91
2023-03-30T21:58:28.120Z,35.02
2023-03-30T22:01:09.031Z,35.04
2023-03-30T22:03:41.342Z,35.02
2023-03-30T22:06:10.059Z,35.07
2023-03-30T22:08:37.565Z,35.10
2023-03-30T22:11:07.253Z,35.27
2023-03-30T22:13:34.700Z,35.27
2023-03-30T22:16:04.626Z,35.39
2023-03-30T22:18:32.705Z,35.45
2023-03-30T22:21:00.792Z,35.45
2023-03-30T22:23:28.282Z,35.50
2023-03-30T22:25:56.063Z,35.46
2023-03-30T22:28:23.788Z,35.51
2023-03-30T22:30:51.495Z,35.64
2023-03-30T22:33:19.258Z,35.72
2023-03-30T22:35:47.184Z,35.74
2023-03-30T22:38:15.031Z,35.68
2023-03-30T22:40:42.792Z,35.70
2023-03-30T22:43:11.221Z,35.56
2023-03-30T22:45:39.293Z,35.73
2023-03-30T22:48:07.214Z,35.78
2023-03-30T22:50:34.892Z,35.79
2023-03-30T22:53:02.337Z,35.78
2023-03-30T22:55:30.051Z,35.79
2023-03-30T22:57:57.783Z,35.78
2023-03-30T23:00:25.556Z,35.84
2023-03-30T23:02:53.429Z,35.84
2023-03-30T23:05:25.564Z,35.88
2023-03-30T23:07:53.562Z,35.88
2023-03-30T23:10:22.325Z,35.90
2023-03-30T23:12:49.810Z,35.90
2023-03-30T23:15:18.600Z,35.89
2023-03-30T23:17:47.463Z,35.91
2023-03-30T23:20:15.442Z,35.95
2023-03-30T23:22:43.304Z,35.97
2023-03-30T23:25:10.829Z,35.99
2023-03-30T23:27:38.267Z,36.00
2023-03-30T23:30:06.666Z,36.01
2023-03-30T23:32:34.623Z,36.08
2023-03-30T23:35:05.301Z,36.03
2023-03-30T23:37:33.029Z,36.07
2023-03-30T23:40:02.046Z,36.07
2023-03-30T23:42:29.554Z,36.09
2023-03-30T23:44:57.274Z,36.09
2023-03-30T23:47:24.757Z,36.15
2023-03-30T23:49:52.261Z,36.18
2023-03-30T23:52:19.976Z,36.22
2023-03-30T23:54:52.477Z,36.29
2023-03-30T23:57:20.454Z,36.31
2023-03-30T23:59:48.012Z,36.34
